sensor_id;sensor_type;location;lat;lon;timestamp;P1;durP1;ratioP1;P2;durP2;ratioP2
40737;SDS011;54759;48.094;-1.628;2022-11-24T00:04:14;0.60;;;0.30;;
40737;SDS011;54759;48.094;-1.628;2022-11-24T00:10:18;0.35;;;0.28;;
40737;SDS011;54759;48.094;-1.628;2022-11-24T00:13:19;0.57;;;0.32;;
40737;SDS011;54759;48.094;-1.628;2022-11-24T00:16:22;0.60;;;0.30;;
40737;SDS011;54759;48.094;-1.628;2022-11-24T00:19:25;0.93;;;0.30;;
40737;SDS011;54759;48.094;-1.628;2022-11-24T00:22:26;0.20;;;0.20;;
40737;SDS011;54759;48.094;-1.628;2022-11-24T00:31:32;0.63;;;0.20;;
40737;SDS011;54759;48.094;-1.628;2022-11-24T00:34:36;0.50;;;0.40;;
40737;SDS011;54759;48.094;-1.628;2022-11-24T00:37:37;1.10;;;0.60;;
40737;SDS011;54759;48.094;-1.628;2022-11-24T00:43:42;1.55;;;0.93;;
40737;SDS011;54759;48.094;-1.628;2022-11-24T00:46:43;1.95;;;0.70;;
40737;SDS011;54759;48.094;-1.628;2022-11-24T00:49:45;1.23;;;0.70;;
40737;SDS011;54759;48.094;-1.628;2022-11-24T00:52:47;1.58;;;0.80;;
40737;SDS011;54759;48.094;-1.628;2022-11-24T00:55:49;1.58;;;0.80;;
40737;SDS011;54759;48.094;-1.628;2022-11-24T00:58:51;2.53;;;0.80;;
40737;SDS011;54759;48.094;-1.628;2022-11-24T01:01:52;2.08;;;1.15;;
40737;SDS011;54759;48.094;-1.628;2022-11-24T01:04:54;2.65;;;1.13;;
40737;SDS011;54759;48.094;-1.628;2022-11-24T01:07:56;2.38;;;0.93;;
40737;SDS011;54759;48.094;-1.628;2022-11-24T01:11:05;3.30;;;1.10;;
40737;SDS011;54759;48.094;-1.628;2022-11-24T01:14:08;3.78;;;1.38;;
40737;SDS011;54759;48.094;-1.628;2022-11-24T01:17:09;2.63;;;1.20;;
40737;SDS011;54759;48.094;-1.628;2022-11-24T01:20:11;2.97;;;1.08;;
40737;SDS011;54759;48.094;-1.628;2022-11-24T01:23:13;3.47;;;1.55;;
40737;SDS011;54759;48.094;-1.628;2022-11-24T01:29:18;2.80;;;1.27;;
40737;SDS011;54759;48.094;-1.628;2022-11-24T01:35:20;2.45;;;1.02;;
40737;SDS011;54759;48.094;-1.628;2022-11-24T01:38:22;2.00;;;0.95;;
40737;SDS011;54759;48.094;-1.628;2022-11-24T01:44:26;2.92;;;1.10;;
40737;SDS011;54759;48.094;-1.628;2022-11-24T01:47:30;3.03;;;1.27;;
40737;SDS011;54759;48.094;-1.628;2022-11-24T01:50:36;2.25;;;0.98;;
40737;SDS011;54759;48.094;-1.628;2022-11-24T01:53:38;2.13;;;0.90;;
40737;SDS011;54759;48.094;-1.628;2022-11-24T01:56:44;2.08;;;0.95;;
40737;SDS011;54759;48.094;-1.628;2022-11-24T01:59:52;1.95;;;0.85;;
40737;SDS011;54759;48.094;-1.628;2022-11-24T02:02:57;2.47;;;1.25;;
40737;SDS011;54759;48.094;-1.628;2022-11-24T02:06:00;1.50;;;0.80;;
40737;SDS011;54759;48.094;-1.628;2022-11-24T02:09:05;2.65;;;0.75;;
40737;SDS011;54759;48.094;-1.628;2022-11-24T02:12:12;1.55;;;0.70;;
40737;SDS011;54759;48.094;-1.628;2022-11-24T02:15:14;1.27;;;0.82;;
40737;SDS011;54759;48.094;-1.628;2022-11-24T02:18:16;1.05;;;0.55;;
40737;SDS011;54759;48.094;-1.628;2022-11-24T02:21:18;2.58;;;0.82;;
40737;SDS011;54759;48.094;-1.628;2022-11-24T02:24:21;1.67;;;0.50;;
40737;SDS011;54759;48.094;-1.628;2022-11-24T02:27:27;1.67;;;0.50;;
40737;SDS011;54759;48.094;-1.628;2022-11-24T02:30:28;1.50;;;0.70;;
40737;SDS011;54759;48.094;-1.628;2022-11-24T02:36:33;1.05;;;0.77;;
40737;SDS011;54759;48.094;-1.628;2022-11-24T02:39:34;0.98;;;0.40;;
40737;SDS011;54759;48.094;-1.628;2022-11-24T02:45:40;1.52;;;0.70;;
40737;SDS011;54759;48.094;-1.628;2022-11-24T02:51:43;1.20;;;0.50;;
40737;SDS011;54759;48.094;-1.628;2022-11-24T02:54:45;0.63;;;0.40;;
40737;SDS011;54759;48.094;-1.628;2022-11-24T02:57:47;1.00;;;0.38;;
40737;SDS011;54759;48.094;-1.628;2022-11-24T03:00:49;0.40;;;0.30;;
40737;SDS011;54759;48.094;-1.628;2022-11-24T03:03:53;0.70;;;0.43;;
40737;SDS011;54759;48.094;-1.628;2022-11-24T03:06:55;0.90;;;0.30;;
40737;SDS011;54759;48.094;-1.628;2022-11-24T03:09:57;0.82;;;0.38;;
40737;SDS011;54759;48.094;-1.628;2022-11-24T03:12:59;0.60;;;0.40;;
40737;SDS011;54759;48.094;-1.628;2022-11-24T03:16:00;0.70;;;0.40;;
40737;SDS011;54759;48.094;-1.628;2022-11-24T03:22:04;0.47;;;0.28;;
40737;SDS011;54759;48.094;-1.628;2022-11-24T03:28:07;0.80;;;0.30;;
40737;SDS011;54759;48.094;-1.628;2022-11-24T03:31:09;0.77;;;0.40;;
40737;SDS011;54759;48.094;-1.628;2022-11-24T03:34:11;0.60;;;0.40;;
40737;SDS011;54759;48.094;-1.628;2022-11-24T03:37:12;0.65;;;0.28;;
40737;SDS011;54759;48.094;-1.628;2022-11-24T03:43:15;0.90;;;0.40;;
40737;SDS011;54759;48.094;-1.628;2022-11-24T03:46:17;0.20;;;0.20;;
40737;SDS011;54759;48.094;-1.628;2022-11-24T03:52:20;0.57;;;0.30;;
40737;SDS011;54759;48.094;-1.628;2022-11-24T03:58:23;0.20;;;0.10;;
40737;SDS011;54759;48.094;-1.628;2022-11-24T04:01:25;0.63;;;0.20;;
40737;SDS011;54759;48.094;-1.628;2022-11-24T04:07:28;0.73;;;0.30;;
40737;SDS011;54759;48.094;-1.628;2022-11-24T04:10:30;0.57;;;0.55;;
40737;SDS011;54759;48.094;-1.628;2022-11-24T04:13:33;0.50;;;0.30;;
40737;SDS011;54759;48.094;-1.628;2022-11-24T04:16:34;0.90;;;0.30;;
40737;SDS011;54759;48.094;-1.628;2022-11-24T04:19:36;0.60;;;0.30;;
40737;SDS011;54759;48.094;-1.628;2022-11-24T04:22:38;0.38;;;0.20;;
40737;SDS011;54759;48.094;-1.628;2022-11-24T04:25:40;0.43;;;0.30;;
40737;SDS011;54759;48.094;-1.628;2022-11-24T04:28:44;0.30;;;0.20;;
40737;SDS011;54759;48.094;-1.628;2022-11-24T04:31:46;0.52;;;0.30;;
40737;SDS011;54759;48.094;-1.628;2022-11-24T04:37:48;0.47;;;0.20;;
40737;SDS011;54759;48.094;-1.628;2022-11-24T04:43:52;0.63;;;0.20;;
40737;SDS011;54759;48.094;-1.628;2022-11-24T04:46:53;0.35;;;0.20;;
40737;SDS011;54759;48.094;-1.628;2022-11-24T04:52:56;0.40;;;0.20;;
40737;SDS011;54759;48.094;-1.628;2022-11-24T04:55:58;0.30;;;0.20;;
40737;SDS011;54759;48.094;-1.628;2022-11-24T04:59:04;0.70;;;0.40;;
40737;SDS011;54759;48.094;-1.628;2022-11-24T05:02:09;0.85;;;0.32;;
40737;SDS011;54759;48.094;-1.628;2022-11-24T05:05:11;0.98;;;0.40;;
40737;SDS011;54759;48.094;-1.628;2022-11-24T05:08:12;0.52;;;0.30;;
40737;SDS011;54759;48.094;-1.628;2022-11-24T05:11:14;0.57;;;0.43;;
40737;SDS011;54759;48.094;-1.628;2022-11-24T05:14:17;0.73;;;0.35;;
40737;SDS011;54759;48.094;-1.628;2022-11-24T05:17:18;0.40;;;0.20;;
40737;SDS011;54759;48.094;-1.628;2022-11-24T05:20:20;0.52;;;0.30;;
40737;SDS011;54759;48.094;-1.628;2022-11-24T05:23:22;1.10;;;0.50;;
40737;SDS011;54759;48.094;-1.628;2022-11-24T05:29:26;0.35;;;0.20;;
40737;SDS011;54759;48.094;-1.628;2022-11-24T05:32:27;0.77;;;0.60;;
40737;SDS011;54759;48.094;-1.628;2022-11-24T05:35:29;1.75;;;0.50;;
40737;SDS011;54759;48.094;-1.628;2022-11-24T05:38:30;0.80;;;0.50;;
40737;SDS011;54759;48.094;-1.628;2022-11-24T05:41:32;1.08;;;0.40;;
40737;SDS011;54759;48.094;-1.628;2022-11-24T05:44:34;0.70;;;0.40;;
40737;SDS011;54759;48.094;-1.628;2022-11-24T05:47:37;1.17;;;0.60;;
40737;SDS011;54759;48.094;-1.628;2022-11-24T05:50:39;0.95;;;0.55;;
40737;SDS011;54759;48.094;-1.628;2022-11-24T05:53:41;1.13;;;0.70;;
40737;SDS011;54759;48.094;-1.628;2022-11-24T05:59:44;0.82;;;0.30;;
40737;SDS011;54759;48.094;-1.628;2022-11-24T06:02:45;1.40;;;0.60;;
40737;SDS011;54759;48.094;-1.628;2022-11-24T06:05:48;0.68;;;0.47;;
40737;SDS011;54759;48.094;-1.628;2022-11-24T06:11:51;0.65;;;0.43;;
40737;SDS011;54759;48.094;-1.628;2022-11-24T06:20:56;0.95;;;0.40;;
40737;SDS011;54759;48.094;-1.628;2022-11-24T06:24:11;0.55;;;0.40;;
40737;SDS011;54759;48.094;-1.628;2022-11-24T06:27:14;0.80;;;0.40;;
40737;SDS011;54759;48.094;-1.628;2022-11-24T06:30:16;0.73;;;0.40;;
40737;SDS011;54759;48.094;-1.628;2022-11-24T06:33:18;1.40;;;0.65;;
40737;SDS011;54759;48.094;-1.628;2022-11-24T06:36:20;0.57;;;0.38;;
40737;SDS011;54759;48.094;-1.628;2022-11-24T06:47:22;1.05;;;0.45;;
40737;SDS011;54759;48.094;-1.628;2022-11-24T06:50:24;0.70;;;0.30;;
40737;SDS011;54759;48.094;-1.628;2022-11-24T06:53:34;0.55;;;0.38;;
40737;SDS011;54759;48.094;-1.628;2022-11-24T06:56:37;1.15;;;0.40;;
40737;SDS011;54759;48.094;-1.628;2022-11-24T06:59:39;0.60;;;0.40;;
40737;SDS011;54759;48.094;-1.628;2022-11-24T07:05:46;0.98;;;0.65;;
40737;SDS011;54759;48.094;-1.628;2022-11-24T07:08:48;1.50;;;0.40;;
40737;SDS011;54759;48.094;-1.628;2022-11-24T07:11:50;0.82;;;0.30;;
40737;SDS011;54759;48.094;-1.628;2022-11-24T07:14:51;0.60;;;0.30;;
40737;SDS011;54759;48.094;-1.628;2022-11-24T07:23:56;1.48;;;0.50;;
40737;SDS011;54759;48.094;-1.628;2022-11-24T07:26:58;1.33;;;0.60;;
40737;SDS011;54759;48.094;-1.628;2022-11-24T07:30:00;0.75;;;0.35;;
40737;SDS011;54759;48.094;-1.628;2022-11-24T07:33:02;1.13;;;0.40;;
40737;SDS011;54759;48.094;-1.628;2022-11-24T07:36:04;0.50;;;0.30;;
40737;SDS011;54759;48.094;-1.628;2022-11-24T07:39:07;1.15;;;0.50;;
40737;SDS011;54759;48.094;-1.628;2022-11-24T07:42:09;1.25;;;0.40;;
40737;SDS011;54759;48.094;-1.628;2022-11-24T07:45:10;1.50;;;0.60;;
40737;SDS011;54759;48.094;-1.628;2022-11-24T07:48:12;0.82;;;0.40;;
40737;SDS011;54759;48.094;-1.628;2022-11-24T07:51:16;1.15;;;0.50;;
40737;SDS011;54759;48.094;-1.628;2022-11-24T07:57:19;0.98;;;0.40;;
40737;SDS011;54759;48.094;-1.628;2022-11-24T08:03:23;0.57;;;0.40;;
40737;SDS011;54759;48.094;-1.628;2022-11-24T08:06:26;0.70;;;0.40;;
40737;SDS011;54759;48.094;-1.628;2022-11-24T08:09:39;1.45;;;0.38;;
40737;SDS011;54759;48.094;-1.628;2022-11-24T08:12:47;1.23;;;0.50;;
40737;SDS011;54759;48.094;-1.628;2022-11-24T08:18:53;1.17;;;0.40;;
40737;SDS011;54759;48.094;-1.628;2022-11-24T08:21:55;1.20;;;0.50;;
40737;SDS011;54759;48.094;-1.628;2022-11-24T08:24:57;1.27;;;0.50;;
40737;SDS011;54759;48.094;-1.628;2022-11-24T08:28:00;1.05;;;0.50;;
40737;SDS011;54759;48.094;-1.628;2022-11-24T08:31:03;0.98;;;0.40;;
40737;SDS011;54759;48.094;-1.628;2022-11-24T08:34:07;1.08;;;0.40;;
40737;SDS011;54759;48.094;-1.628;2022-11-24T08:37:10;0.98;;;0.40;;
40737;SDS011;54759;48.094;-1.628;2022-11-24T08:40:13;1.10;;;0.57;;
40737;SDS011;54759;48.094;-1.628;2022-11-24T08:43:17;1.10;;;0.50;;
40737;SDS011;54759;48.094;-1.628;2022-11-24T08:46:18;1.48;;;0.40;;
40737;SDS011;54759;48.094;-1.628;2022-11-24T08:49:23;0.93;;;0.40;;
40737;SDS011;54759;48.094;-1.628;2022-11-24T08:52:25;1.42;;;1.00;;
40737;SDS011;54759;48.094;-1.628;2022-11-24T08:55:27;0.68;;;0.40;;
40737;SDS011;54759;48.094;-1.628;2022-11-24T08:58:29;1.05;;;0.38;;
40737;SDS011;54759;48.094;-1.628;2022-11-24T09:01:31;1.00;;;0.47;;
40737;SDS011;54759;48.094;-1.628;2022-11-24T09:04:37;0.50;;;0.30;;
40737;SDS011;54759;48.094;-1.628;2022-11-24T09:07:39;1.08;;;0.52;;
40737;SDS011;54759;48.094;-1.628;2022-11-24T09:10:41;0.63;;;0.30;;
40737;SDS011;54759;48.094;-1.628;2022-11-24T09:13:43;0.93;;;0.30;;
40737;SDS011;54759;48.094;-1.628;2022-11-24T09:16:45;0.50;;;0.40;;
40737;SDS011;54759;48.094;-1.628;2022-11-24T09:19:47;1.02;;;0.52;;
40737;SDS011;54759;48.094;-1.628;2022-11-24T09:22:49;0.63;;;0.30;;
40737;SDS011;54759;48.094;-1.628;2022-11-24T09:25:51;1.58;;;0.52;;
40737;SDS011;54759;48.094;-1.628;2022-11-24T09:28:53;0.60;;;0.50;;
40737;SDS011;54759;48.094;-1.628;2022-11-24T09:31:56;1.15;;;0.60;;
40737;SDS011;54759;48.094;-1.628;2022-11-24T09:35:06;1.45;;;0.63;;
40737;SDS011;54759;48.094;-1.628;2022-11-24T09:38:08;0.50;;;0.40;;
40737;SDS011;54759;48.094;-1.628;2022-11-24T09:44:45;0.50;;;0.30;;
40737;SDS011;54759;48.094;-1.628;2022-11-24T09:47:57;1.25;;;0.50;;
40737;SDS011;54759;48.094;-1.628;2022-11-24T09:51:02;0.95;;;0.40;;
40737;SDS011;54759;48.094;-1.628;2022-11-24T09:54:08;0.75;;;0.50;;
40737;SDS011;54759;48.094;-1.628;2022-11-24T09:57:16;1.40;;;0.50;;
40737;SDS011;54759;48.094;-1.628;2022-11-24T10:00:19;1.60;;;0.50;;
40737;SDS011;54759;48.094;-1.628;2022-11-24T10:03:23;1.95;;;0.43;;
40737;SDS011;54759;48.094;-1.628;2022-11-24T10:06:30;1.55;;;0.63;;
40737;SDS011;54759;48.094;-1.628;2022-11-24T10:09:44;1.25;;;0.60;;
40737;SDS011;54759;48.094;-1.628;2022-11-24T10:12:58;0.60;;;0.30;;
40737;SDS011;54759;48.094;-1.628;2022-11-24T10:16:09;4.57;;;0.63;;
40737;SDS011;54759;48.094;-1.628;2022-11-24T10:19:19;1.00;;;0.40;;
40737;SDS011;54759;48.094;-1.628;2022-11-24T10:22:43;0.68;;;0.35;;
40737;SDS011;54759;48.094;-1.628;2022-11-24T10:25:53;0.98;;;0.50;;
40737;SDS011;54759;48.094;-1.628;2022-11-24T10:28:57;1.00;;;0.50;;
40737;SDS011;54759;48.094;-1.628;2022-11-24T10:31:59;0.77;;;0.40;;
40737;SDS011;54759;48.094;-1.628;2022-11-24T10:35:12;1.13;;;0.55;;
40737;SDS011;54759;48.094;-1.628;2022-11-24T10:38:21;1.50;;;0.68;;
40737;SDS011;54759;48.094;-1.628;2022-11-24T10:41:36;0.93;;;0.50;;
40737;SDS011;54759;48.094;-1.628;2022-11-24T10:44:46;1.10;;;0.50;;
40737;SDS011;54759;48.094;-1.628;2022-11-24T10:48:00;0.63;;;0.40;;
40737;SDS011;54759;48.094;-1.628;2022-11-24T10:51:04;0.85;;;0.50;;
40737;SDS011;54759;48.094;-1.628;2022-11-24T10:54:32;0.95;;;0.30;;
40737;SDS011;54759;48.094;-1.628;2022-11-24T10:57:36;1.80;;;0.40;;
40737;SDS011;54759;48.094;-1.628;2022-11-24T11:00:40;0.80;;;0.47;;
40737;SDS011;54759;48.094;-1.628;2022-11-24T11:03:44;0.95;;;0.38;;
40737;SDS011;54759;48.094;-1.628;2022-11-24T11:06:50;1.48;;;0.40;;
40737;SDS011;54759;48.094;-1.628;2022-11-24T11:13:21;1.38;;;0.75;;
40737;SDS011;54759;48.094;-1.628;2022-11-24T11:16:25;0.55;;;0.35;;
40737;SDS011;54759;48.094;-1.628;2022-11-24T11:19:34;0.82;;;0.43;;
40737;SDS011;54759;48.094;-1.628;2022-11-24T11:22:57;1.25;;;0.40;;
40737;SDS011;54759;48.094;-1.628;2022-11-24T11:26:16;1.63;;;0.30;;
40737;SDS011;54759;48.094;-1.628;2022-11-24T11:29:20;1.00;;;0.30;;
40737;SDS011;54759;48.094;-1.628;2022-11-24T11:32:54;0.47;;;0.30;;
40737;SDS011;54759;48.094;-1.628;2022-11-24T11:36:18;0.60;;;0.40;;
40737;SDS011;54759;48.094;-1.628;2022-11-24T11:39:26;0.50;;;0.30;;
40737;SDS011;54759;48.094;-1.628;2022-11-24T11:42:33;0.65;;;0.38;;
40737;SDS011;54759;48.094;-1.628;2022-11-24T11:46:01;0.60;;;0.30;;
40737;SDS011;54759;48.094;-1.628;2022-11-24T11:49:07;0.45;;;0.30;;
40737;SDS011;54759;48.094;-1.628;2022-11-24T11:52:22;1.00;;;0.40;;
40737;SDS011;54759;48.094;-1.628;2022-11-24T11:55:41;0.20;;;0.15;;
40737;SDS011;54759;48.094;-1.628;2022-11-24T12:06:00;0.70;;;0.30;;
40737;SDS011;54759;48.094;-1.628;2022-11-24T12:09:14;0.60;;;0.32;;
40737;SDS011;54759;48.094;-1.628;2022-11-24T12:15:49;1.08;;;0.30;;
40737;SDS011;54759;48.094;-1.628;2022-11-24T12:19:01;1.13;;;0.50;;
40737;SDS011;54759;48.094;-1.628;2022-11-24T12:22:30;0.98;;;0.50;;
40737;SDS011;54759;48.094;-1.628;2022-11-24T12:25:40;0.40;;;0.30;;
40737;SDS011;54759;48.094;-1.628;2022-11-24T12:28:46;0.60;;;0.30;;
40737;SDS011;54759;48.094;-1.628;2022-11-24T12:31:58;0.57;;;0.40;;
40737;SDS011;54759;48.094;-1.628;2022-11-24T12:35:14;0.60;;;0.22;;
40737;SDS011;54759;48.094;-1.628;2022-11-24T12:38:26;0.40;;;0.30;;
40737;SDS011;54759;48.094;-1.628;2022-11-24T12:41:41;1.10;;;0.50;;
40737;SDS011;54759;48.094;-1.628;2022-11-24T12:45:03;0.75;;;0.30;;
40737;SDS011;54759;48.094;-1.628;2022-11-24T12:48:16;0.95;;;0.50;;
40737;SDS011;54759;48.094;-1.628;2022-11-24T12:51:30;0.93;;;0.47;;
40737;SDS011;54759;48.094;-1.628;2022-11-24T12:54:35;0.80;;;0.40;;
40737;SDS011;54759;48.094;-1.628;2022-11-24T12:57:40;1.55;;;0.50;;
40737;SDS011;54759;48.094;-1.628;2022-11-24T13:00:52;0.50;;;0.30;;
40737;SDS011;54759;48.094;-1.628;2022-11-24T13:04:05;1.50;;;0.68;;
40737;SDS011;54759;48.094;-1.628;2022-11-24T13:07:13;1.05;;;0.35;;
40737;SDS011;54759;48.094;-1.628;2022-11-24T13:10:26;0.85;;;0.68;;
40737;SDS011;54759;48.094;-1.628;2022-11-24T13:13:56;1.10;;;0.40;;
40737;SDS011;54759;48.094;-1.628;2022-11-24T13:17:00;1.35;;;0.70;;
40737;SDS011;54759;48.094;-1.628;2022-11-24T13:20:24;0.80;;;0.40;;
40737;SDS011;54759;48.094;-1.628;2022-11-24T13:23:30;0.82;;;0.40;;
40737;SDS011;54759;48.094;-1.628;2022-11-24T13:26:42;0.47;;;0.30;;
40737;SDS011;54759;48.094;-1.628;2022-11-24T13:29:45;0.80;;;0.40;;
40737;SDS011;54759;48.094;-1.628;2022-11-24T13:32:57;0.73;;;0.40;;
40737;SDS011;54759;48.094;-1.628;2022-11-24T13:39:46;0.75;;;0.35;;
40737;SDS011;54759;48.094;-1.628;2022-11-24T13:46:15;1.30;;;0.30;;
40737;SDS011;54759;48.094;-1.628;2022-11-24T13:49:52;0.88;;;0.40;;
40737;SDS011;54759;48.094;-1.628;2022-11-24T13:52:54;2.05;;;0.52;;
40737;SDS011;54759;48.094;-1.628;2022-11-24T13:56:07;0.82;;;0.30;;
40737;SDS011;54759;48.094;-1.628;2022-11-24T13:59:22;0.85;;;0.30;;
40737;SDS011;54759;48.094;-1.628;2022-11-24T14:02:30;1.00;;;0.45;;
40737;SDS011;54759;48.094;-1.628;2022-11-24T14:05:35;1.30;;;0.60;;
40737;SDS011;54759;48.094;-1.628;2022-11-24T14:08:39;0.93;;;0.30;;
40737;SDS011;54759;48.094;-1.628;2022-11-24T14:11:40;1.20;;;0.43;;
40737;SDS011;54759;48.094;-1.628;2022-11-24T14:14:43;1.00;;;0.40;;
40737;SDS011;54759;48.094;-1.628;2022-11-24T14:17:46;1.55;;;0.70;;
40737;SDS011;54759;48.094;-1.628;2022-11-24T14:20:48;1.45;;;0.60;;
40737;SDS011;54759;48.094;-1.628;2022-11-24T14:23:51;1.23;;;0.40;;
40737;SDS011;54759;48.094;-1.628;2022-11-24T14:26:55;1.60;;;0.50;;
40737;SDS011;54759;48.094;-1.628;2022-11-24T14:29:59;0.80;;;0.40;;
40737;SDS011;54759;48.094;-1.628;2022-11-24T14:33:08;2.10;;;0.60;;
40737;SDS011;54759;48.094;-1.628;2022-11-24T14:36:13;1.27;;;0.57;;
40737;SDS011;54759;48.094;-1.628;2022-11-24T14:39:16;1.00;;;0.68;;
40737;SDS011;54759;48.094;-1.628;2022-11-24T14:42:19;1.55;;;0.77;;
40737;SDS011;54759;48.094;-1.628;2022-11-24T14:45:23;1.38;;;0.50;;
40737;SDS011;54759;48.094;-1.628;2022-11-24T14:48:26;3.60;;;0.65;;
40737;SDS011;54759;48.094;-1.628;2022-11-24T14:51:31;2.15;;;0.57;;
40737;SDS011;54759;48.094;-1.628;2022-11-24T14:54:35;1.77;;;0.60;;
40737;SDS011;54759;48.094;-1.628;2022-11-24T14:57:44;1.17;;;0.65;;
40737;SDS011;54759;48.094;-1.628;2022-11-24T15:04:12;1.45;;;0.50;;
40737;SDS011;54759;48.094;-1.628;2022-11-24T15:07:28;2.20;;;0.68;;
40737;SDS011;54759;48.094;-1.628;2022-11-24T15:10:31;0.90;;;0.45;;
40737;SDS011;54759;48.094;-1.628;2022-11-24T15:13:36;1.95;;;0.65;;
40737;SDS011;54759;48.094;-1.628;2022-11-24T15:16:40;1.40;;;0.60;;
40737;SDS011;54759;48.094;-1.628;2022-11-24T15:19:42;1.60;;;0.47;;
40737;SDS011;54759;48.094;-1.628;2022-11-24T15:22:47;2.05;;;0.50;;
40737;SDS011;54759;48.094;-1.628;2022-11-24T15:25:51;1.63;;;0.60;;
40737;SDS011;54759;48.094;-1.628;2022-11-24T15:28:54;1.15;;;0.45;;
40737;SDS011;54759;48.094;-1.628;2022-11-24T15:31:55;1.30;;;0.50;;
40737;SDS011;54759;48.094;-1.628;2022-11-24T15:34:58;2.10;;;0.63;;
40737;SDS011;54759;48.094;-1.628;2022-11-24T15:38:01;1.42;;;0.68;;
40737;SDS011;54759;48.094;-1.628;2022-11-24T15:41:04;0.88;;;0.40;;
40737;SDS011;54759;48.094;-1.628;2022-11-24T15:44:16;0.60;;;0.32;;
40737;SDS011;54759;48.094;-1.628;2022-11-24T15:47:17;2.30;;;0.60;;
40737;SDS011;54759;48.094;-1.628;2022-11-24T15:50:19;1.30;;;0.60;;
40737;SDS011;54759;48.094;-1.628;2022-11-24T15:53:22;1.00;;;0.50;;
40737;SDS011;54759;48.094;-1.628;2022-11-24T15:56:27;1.00;;;0.50;;
40737;SDS011;54759;48.094;-1.628;2022-11-24T15:59:31;1.17;;;0.60;;
40737;SDS011;54759;48.094;-1.628;2022-11-24T16:02:33;1.70;;;0.57;;
40737;SDS011;54759;48.094;-1.628;2022-11-24T16:05:35;0.50;;;0.32;;
40737;SDS011;54759;48.094;-1.628;2022-11-24T16:08:38;2.53;;;0.70;;
40737;SDS011;54759;48.094;-1.628;2022-11-24T16:11:40;1.05;;;0.50;;
40737;SDS011;54759;48.094;-1.628;2022-11-24T16:14:42;0.93;;;0.40;;
40737;SDS011;54759;48.094;-1.628;2022-11-24T16:17:43;1.98;;;0.45;;
40737;SDS011;54759;48.094;-1.628;2022-11-24T16:20:46;1.17;;;0.47;;
40737;SDS011;54759;48.094;-1.628;2022-11-24T16:23:48;1.42;;;0.50;;
40737;SDS011;54759;48.094;-1.628;2022-11-24T16:26:49;1.40;;;0.50;;
40737;SDS011;54759;48.094;-1.628;2022-11-24T16:29:51;1.27;;;0.60;;
40737;SDS011;54759;48.094;-1.628;2022-11-24T16:32:53;1.40;;;0.43;;
40737;SDS011;54759;48.094;-1.628;2022-11-24T16:35:55;2.78;;;0.40;;
40737;SDS011;54759;48.094;-1.628;2022-11-24T16:38:58;1.27;;;0.45;;
40737;SDS011;54759;48.094;-1.628;2022-11-24T16:42:00;1.23;;;0.50;;
40737;SDS011;54759;48.094;-1.628;2022-11-24T16:48:03;1.05;;;0.50;;
40737;SDS011;54759;48.094;-1.628;2022-11-24T16:51:06;1.92;;;0.50;;
40737;SDS011;54759;48.094;-1.628;2022-11-24T16:54:10;1.02;;;0.55;;
40737;SDS011;54759;48.094;-1.628;2022-11-24T16:57:12;2.72;;;0.38;;
40737;SDS011;54759;48.094;-1.628;2022-11-24T17:00:16;0.68;;;0.22;;
40737;SDS011;54759;48.094;-1.628;2022-11-24T17:03:18;0.95;;;0.50;;
40737;SDS011;54759;48.094;-1.628;2022-11-24T17:06:19;1.48;;;0.50;;
40737;SDS011;54759;48.094;-1.628;2022-11-24T17:09:22;0.95;;;0.47;;
40737;SDS011;54759;48.094;-1.628;2022-11-24T17:12:23;1.08;;;0.60;;
40737;SDS011;54759;48.094;-1.628;2022-11-24T17:15:25;0.93;;;0.40;;
40737;SDS011;54759;48.094;-1.628;2022-11-24T17:18:43;8.98;;;0.75;;
40737;SDS011;54759;48.094;-1.628;2022-11-24T17:21:45;0.85;;;0.47;;
40737;SDS011;54759;48.094;-1.628;2022-11-24T17:24:47;1.60;;;0.70;;
40737;SDS011;54759;48.094;-1.628;2022-11-24T17:27:48;0.68;;;0.30;;
40737;SDS011;54759;48.094;-1.628;2022-11-24T17:30:51;1.80;;;0.73;;
40737;SDS011;54759;48.094;-1.628;2022-11-24T17:33:53;1.17;;;0.47;;
40737;SDS011;54759;48.094;-1.628;2022-11-24T17:36:55;1.90;;;0.52;;
40737;SDS011;54759;48.094;-1.628;2022-11-24T17:43:35;0.77;;;0.38;;
40737;SDS011;54759;48.094;-1.628;2022-11-24T17:46:37;0.25;;;0.25;;
40737;SDS011;54759;48.094;-1.628;2022-11-24T17:49:39;0.80;;;0.32;;
40737;SDS011;54759;48.094;-1.628;2022-11-24T17:52:40;0.93;;;0.30;;
40737;SDS011;54759;48.094;-1.628;2022-11-24T17:55:42;0.45;;;0.32;;
40737;SDS011;54759;48.094;-1.628;2022-11-24T17:58:44;0.52;;;0.30;;
40737;SDS011;54759;48.094;-1.628;2022-11-24T18:01:46;0.52;;;0.20;;
40737;SDS011;54759;48.094;-1.628;2022-11-24T18:07:49;0.82;;;0.22;;
40737;SDS011;54759;48.094;-1.628;2022-11-24T18:10:50;1.05;;;0.40;;
40737;SDS011;54759;48.094;-1.628;2022-11-24T18:13:53;0.32;;;0.20;;
40737;SDS011;54759;48.094;-1.628;2022-11-24T18:17:01;0.70;;;0.30;;
40737;SDS011;54759;48.094;-1.628;2022-11-24T18:20:03;0.47;;;0.32;;
40737;SDS011;54759;48.094;-1.628;2022-11-24T18:23:05;0.98;;;0.40;;
40737;SDS011;54759;48.094;-1.628;2022-11-24T18:26:07;0.47;;;0.40;;
40737;SDS011;54759;48.094;-1.628;2022-11-24T18:29:10;0.80;;;0.30;;
40737;SDS011;54759;48.094;-1.628;2022-11-24T18:32:12;0.50;;;0.40;;
40737;SDS011;54759;48.094;-1.628;2022-11-24T18:35:13;0.85;;;0.32;;
40737;SDS011;54759;48.094;-1.628;2022-11-24T18:41:16;0.50;;;0.30;;
40737;SDS011;54759;48.094;-1.628;2022-11-24T18:44:19;0.88;;;0.40;;
40737;SDS011;54759;48.094;-1.628;2022-11-24T18:47:20;1.02;;;0.40;;
40737;SDS011;54759;48.094;-1.628;2022-11-24T18:50:22;0.57;;;0.40;;
40737;SDS011;54759;48.094;-1.628;2022-11-24T18:53:24;0.47;;;0.22;;
40737;SDS011;54759;48.094;-1.628;2022-11-24T18:56:26;0.85;;;0.30;;
40737;SDS011;54759;48.094;-1.628;2022-11-24T18:59:29;0.98;;;0.40;;
40737;SDS011;54759;48.094;-1.628;2022-11-24T19:02:31;0.93;;;0.30;;
40737;SDS011;54759;48.094;-1.628;2022-11-24T19:05:33;0.47;;;0.30;;
40737;SDS011;54759;48.094;-1.628;2022-11-24T19:08:34;0.38;;;0.22;;
40737;SDS011;54759;48.094;-1.628;2022-11-24T19:11:37;0.40;;;0.30;;
40737;SDS011;54759;48.094;-1.628;2022-11-24T19:14:41;0.70;;;0.43;;
40737;SDS011;54759;48.094;-1.628;2022-11-24T19:17:42;0.63;;;0.30;;
40737;SDS011;54759;48.094;-1.628;2022-11-24T19:20:47;0.80;;;0.25;;
40737;SDS011;54759;48.094;-1.628;2022-11-24T19:23:49;0.68;;;0.30;;
40737;SDS011;54759;48.094;-1.628;2022-11-24T19:29:54;0.95;;;0.38;;
40737;SDS011;54759;48.094;-1.628;2022-11-24T19:32:55;0.57;;;0.43;;
40737;SDS011;54759;48.094;-1.628;2022-11-24T19:35:58;0.60;;;0.30;;
40737;SDS011;54759;48.094;-1.628;2022-11-24T19:39:02;0.90;;;0.38;;
40737;SDS011;54759;48.094;-1.628;2022-11-24T19:42:04;0.65;;;0.20;;
40737;SDS011;54759;48.094;-1.628;2022-11-24T19:48:08;0.80;;;0.30;;
40737;SDS011;54759;48.094;-1.628;2022-11-24T19:51:11;0.30;;;0.30;;
40737;SDS011;54759;48.094;-1.628;2022-11-24T19:54:13;0.65;;;0.40;;
40737;SDS011;54759;48.094;-1.628;2022-11-24T19:57:16;0.68;;;0.30;;
40737;SDS011;54759;48.094;-1.628;2022-11-24T20:03:20;0.50;;;0.30;;
40737;SDS011;54759;48.094;-1.628;2022-11-24T20:09:22;0.40;;;0.20;;
40737;SDS011;54759;48.094;-1.628;2022-11-24T20:12:24;0.60;;;0.47;;
40737;SDS011;54759;48.094;-1.628;2022-11-24T20:18:28;0.47;;;0.30;;
40737;SDS011;54759;48.094;-1.628;2022-11-24T20:21:31;0.30;;;0.30;;
40737;SDS011;54759;48.094;-1.628;2022-11-24T20:24:33;0.60;;;0.30;;
40737;SDS011;54759;48.094;-1.628;2022-11-24T20:27:35;0.47;;;0.40;;
40737;SDS011;54759;48.094;-1.628;2022-11-24T20:36:41;0.90;;;0.30;;
40737;SDS011;54759;48.094;-1.628;2022-11-24T20:39:44;0.55;;;0.35;;
40737;SDS011;54759;48.094;-1.628;2022-11-24T20:45:48;0.70;;;0.38;;
40737;SDS011;54759;48.094;-1.628;2022-11-24T20:48:50;0.60;;;0.40;;
40737;SDS011;54759;48.094;-1.628;2022-11-24T20:51:52;0.47;;;0.43;;
40737;SDS011;54759;48.094;-1.628;2022-11-24T20:54:54;0.75;;;0.50;;
40737;SDS011;54759;48.094;-1.628;2022-11-24T20:57:56;0.80;;;0.45;;
40737;SDS011;54759;48.094;-1.628;2022-11-24T21:04:05;0.50;;;0.40;;